createdAt,value
2024-01-03T05:02:37.748Z,3.05
2024-01-03T05:05:04.995Z,4.93
2024-01-03T05:07:34.694Z,1.88
2024-01-03T05:10:02.458Z,2.33
2024-01-03T05:12:29.175Z,1.95
2024-01-03T05:14:55.993Z,1.50
2024-01-03T05:17:22.874Z,1.33
2024-01-03T05:19:49.558Z,1.77
2024-01-03T05:22:16.180Z,1.60
2024-01-03T05:24:43.592Z,1.52
2024-01-03T05:27:11.186Z,2.03
2024-01-03T05:29:39.532Z,1.47
2024-01-03T05:32:09.351Z,1.15
2024-01-03T05:34:37.421Z,1.55
2024-01-03T05:37:05.533Z,1.10
2024-01-03T05:39:36.134Z,1.00
2024-01-03T05:42:03.311Z,1.27
2024-01-03T05:44:30.341Z,1.35
2024-01-03T05:46:57.560Z,1.40
2024-01-03T05:49:24.277Z,1.15
2024-01-03T05:51:50.892Z,1.10
2024-01-03T05:54:17.601Z,1.20
2024-01-03T05:56:44.196Z,1.10
2024-01-03T05:59:10.766Z,1.27
2024-01-03T06:01:37.361Z,1.13
2024-01-03T06:04:04.012Z,1.02
2024-01-03T06:06:30.672Z,0.80
2024-01-03T06:08:57.433Z,0.85
2024-01-03T06:11:24.635Z,0.88
2024-01-03T06:13:52.537Z,0.80
2024-01-03T06:16:19.210Z,1.33
2024-01-03T06:18:46.003Z,0.70
2024-01-03T06:21:12.910Z,1.00
2024-01-03T06:23:41.448Z,1.10
2024-01-03T06:26:08.345Z,0.73
2024-01-03T06:28:34.969Z,1.05
2024-01-03T06:31:04.530Z,1.00
2024-01-03T06:33:31.253Z,0.75
2024-01-03T06:36:00.365Z,0.60
2024-01-03T06:38:27.104Z,0.60
2024-01-03T06:40:53.862Z,0.60
2024-01-03T06:43:20.490Z,0.40
2024-01-03T06:45:47.287Z,0.45
2024-01-03T06:48:14.270Z,0.43
2024-01-03T06:50:41.366Z,0.43
2024-01-03T06:53:07.998Z,0.45
2024-01-03T06:55:34.624Z,0.20
2024-01-03T06:58:01.189Z,1.17
2024-01-03T07:00:27.850Z,0.30
2024-01-03T07:02:54.567Z,0.30
2024-01-03T07:05:21.270Z,0.10
2024-01-03T07:07:47.946Z,1.33
2024-01-03T07:10:14.554Z,0.43
2024-01-03T07:12:41.174Z,0.77
2024-01-03T07:15:08.280Z,0.30
2024-01-03T07:17:34.964Z,0.70
2024-01-03T07:20:01.776Z,0.30
2024-01-03T07:22:28.496Z,0.80
2024-01-03T07:24:55.095Z,0.63
2024-01-03T07:27:21.931Z,0.52
2024-01-03T07:29:49.897Z,0.80
2024-01-03T07:32:16.715Z,0.70
2024-01-03T07:34:43.335Z,1.05
2024-01-03T07:37:10.224Z,1.30
2024-01-03T07:39:36.840Z,1.13
2024-01-03T07:42:04.611Z,1.52
2024-01-03T07:44:37.013Z,1.43
2024-01-03T07:47:03.671Z,1.45
2024-01-03T07:49:31.775Z,1.90
2024-01-03T07:51:58.764Z,1.60
2024-01-03T07:54:25.529Z,1.55
2024-01-03T07:56:52.614Z,2.13
2024-01-03T07:59:19.421Z,2.00
2024-01-03T08:01:46.432Z,2.05
2024-01-03T08:04:13.052Z,1.98
2024-01-03T08:06:40.654Z,2.10
2024-01-03T08:09:07.365Z,1.67
2024-01-03T08:11:34.067Z,1.60
2024-01-03T08:14:00.792Z,1.90
2024-01-03T08:16:27.379Z,1.80
2024-01-03T08:18:54.656Z,1.95
2024-01-03T08:21:21.586Z,2.30
2024-01-03T08:23:48.236Z,2.22
2024-01-03T08:26:14.846Z,1.92
2024-01-03T08:28:43.780Z,1.80
2024-01-03T08:31:18.439Z,1.65
2024-01-03T08:33:47.499Z,1.40
2024-01-03T08:36:16.103Z,1.70
2024-01-03T08:38:43.415Z,1.98
2024-01-03T08:41:17.552Z,1.85
2024-01-03T08:43:45.484Z,1.83
2024-01-03T08:46:12.128Z,2.07
2024-01-03T08:48:42.708Z,2.00
2024-01-03T08:51:17.695Z,2.20
2024-01-03T08:53:45.291Z,2.97
2024-01-03T08:56:18.631Z,2.42
2024-01-03T08:58:46.862Z,3.40
2024-01-03T09:01:21.646Z,3.10
2024-01-03T09:03:49.594Z,3.28
2024-01-03T09:06:24.488Z,2.60
2024-01-03T09:08:56.402Z,2.88
2024-01-03T09:11:27.455Z,2.37
2024-01-03T09:13:54.428Z,2.15
2024-01-03T09:16:27.402Z,2.58
2024-01-03T09:18:54.872Z,2.28
2024-01-03T09:21:22.587Z,2.20
2024-01-03T09:23:50.069Z,1.90
2024-01-03T09:26:20.301Z,1.98
2024-01-03T09:28:48.498Z,2.10
2024-01-03T09:31:15.347Z,1.88
2024-01-03T09:33:42.038Z,2.75
2024-01-03T09:36:22.911Z,2.30
2024-01-03T09:38:52.187Z,2.45
2024-01-03T09:41:19.388Z,2.60
2024-01-03T09:43:46.751Z,2.08
2024-01-03T09:46:13.708Z,2.63
2024-01-03T09:48:42.369Z,1.97
2024-01-03T09:51:10.601Z,1.70
2024-01-03T09:53:38.465Z,2.00
2024-01-03T09:56:05.461Z,2.20
2024-01-03T09:58:33.320Z,2.35
2024-01-03T10:00:59.954Z,2.33
2024-01-03T10:03:26.621Z,2.47
2024-01-03T10:06:18.825Z,2.13
2024-01-03T10:09:03.758Z,2.58
2024-01-03T10:11:31.095Z,2.30
2024-01-03T10:14:14.033Z,2.70
2024-01-03T10:16:40.767Z,2.80
2024-01-03T10:19:19.008Z,3.13
2024-01-03T10:21:50.569Z,3.03
2024-01-03T10:24:18.363Z,2.97
2024-01-03T10:26:46.718Z,3.30
2024-01-03T10:29:15.544Z,2.38
2024-01-03T10:31:42.917Z,2.80
2024-01-03T10:34:17.557Z,2.22
2024-01-03T10:36:46.893Z,2.50
2024-01-03T10:39:17.051Z,2.93
2024-01-03T10:41:53.614Z,3.00
2024-01-03T10:44:20.861Z,3.25
2024-01-03T10:46:49.698Z,2.50
2024-01-03T10:49:19.714Z,3.10
2024-01-03T10:51:50.674Z,3.00
2024-01-03T10:54:18.634Z,2.83
2024-01-03T10:56:51.614Z,2.83
2024-01-03T10:59:19.536Z,3.03
2024-01-03T11:01:54.335Z,2.70
2024-01-03T11:04:36.291Z,2.90
2024-01-03T11:07:14.103Z,3.17
2024-01-03T11:09:40.827Z,3.05
2024-01-03T11:12:09.328Z,3.42
2024-01-03T11:14:36.517Z,3.38
2024-01-03T11:17:04.204Z,3.10
2024-01-03T11:19:32.968Z,3.72
2024-01-03T11:22:02.565Z,2.97
2024-01-03T11:24:29.073Z,3.08
2024-01-03T11:26:56.396Z,3.45
2024-01-03T11:29:48.076Z,3.43
2024-01-03T11:32:37.496Z,3.50
2024-01-03T11:35:09.696Z,4.18
2024-01-03T11:37:38.557Z,3.10
2024-01-03T11:40:08.672Z,2.90
2024-01-03T11:42:38.632Z,3.17
2024-01-03T11:45:09.264Z,2.45
2024-01-03T11:47:44.732Z,2.47
2024-01-03T11:50:17.368Z,2.20
2024-01-03T11:52:47.338Z,2.30
2024-01-03T11:55:17.419Z,2.37
2024-01-03T11:57:45.655Z,2.13
2024-01-03T12:00:24.966Z,1.30
2024-01-03T12:02:51.981Z,1.50
2024-01-03T12:05:18.945Z,1.98
2024-01-03T12:07:48.694Z,1.87
2024-01-03T12:10:17.727Z,1.85
2024-01-03T12:12:48.553Z,1.55
2024-01-03T12:18:06.992Z,1.58
2024-01-03T12:20:34.845Z,1.87
2024-01-03T12:23:12.779Z,2.05
2024-01-03T12:25:41.054Z,1.70
2024-01-03T12:28:08.286Z,1.58
2024-01-03T12:30:36.212Z,1.10
2024-01-03T12:33:13.817Z,1.30
2024-01-03T12:35:41.642Z,1.23
2024-01-03T12:38:08.712Z,1.50
2024-01-03T12:40:35.631Z,1.80
2024-01-03T12:43:03.947Z,1.55
2024-01-03T12:45:30.864Z,1.70
2024-01-03T12:47:57.529Z,2.33
2024-01-03T12:50:24.344Z,1.88
2024-01-03T12:52:50.964Z,1.73
2024-01-03T12:55:17.782Z,1.52
2024-01-03T12:57:44.582Z,2.77
2024-01-03T13:00:11.845Z,1.95
2024-01-03T13:02:39.134Z,1.83
2024-01-03T13:05:07.666Z,1.88
2024-01-03T13:07:34.624Z,2.08
2024-01-03T13:10:01.464Z,2.47
2024-01-03T13:12:28.550Z,2.15
2024-01-03T13:14:56.592Z,2.17
2024-01-03T13:17:24.970Z,2.63
2024-01-03T13:19:51.904Z,1.60
2024-01-03T13:22:21.557Z,2.17
2024-01-03T13:24:48.303Z,2.03
2024-01-03T13:27:15.902Z,1.95
2024-01-03T13:29:43.013Z,2.28
2024-01-03T13:32:11.136Z,2.90
2024-01-03T13:34:38.235Z,2.47
2024-01-03T13:37:06.372Z,2.13
2024-01-03T13:39:33.325Z,1.15
2024-01-03T13:42:00.458Z,0.95
2024-01-03T13:44:27.115Z,1.38
2024-01-03T13:46:54.891Z,0.90
2024-01-03T13:49:23.095Z,1.02
2024-01-03T13:51:52.623Z,0.73
2024-01-03T13:54:20.374Z,0.80
2024-01-03T13:56:47.639Z,1.10
2024-01-03T13:59:14.334Z,2.30
2024-01-03T14:01:41.554Z,0.80
2024-01-03T14:04:08.319Z,0.85
2024-01-03T14:06:39.721Z,1.20
2024-01-03T14:09:07.587Z,1.17
2024-01-03T14:11:34.566Z,1.40
2024-01-03T14:14:01.550Z,1.52
2024-01-03T14:16:28.184Z,1.20
2024-01-03T14:18:55.711Z,0.90
2024-01-03T14:21:22.612Z,1.05
2024-01-03T14:23:49.699Z,1.13
2024-01-03T14:26:16.377Z,0.47
2024-01-03T14:28:42.905Z,0.68
2024-01-03T14:31:10.355Z,0.70
2024-01-03T14:33:37.270Z,0.50
2024-01-03T14:36:04.760Z,0.50
2024-01-03T14:38:35.056Z,0.63
2024-01-03T14:41:03.829Z,1.30
2024-01-03T14:43:34.163Z,1.23
2024-01-03T14:46:03.224Z,0.95
2024-01-03T14:48:33.447Z,0.70
2024-01-03T14:51:06.000Z,0.60
2024-01-03T14:53:33.911Z,0.70
2024-01-03T14:56:00.612Z,0.85
2024-01-03T14:58:28.116Z,1.02
2024-01-03T15:00:56.263Z,1.80
2024-01-03T15:03:23.175Z,1.73
2024-01-03T15:05:50.081Z,1.55
2024-01-03T15:08:17.907Z,1.33
2024-01-03T15:10:44.931Z,1.80
2024-01-03T15:13:13.105Z,1.60
2024-01-03T15:15:44.271Z,1.20
2024-01-03T15:18:13.194Z,1.92
2024-01-03T15:20:41.022Z,1.48
2024-01-03T15:23:09.434Z,1.60
2024-01-03T15:25:39.765Z,1.57
2024-01-03T15:28:07.249Z,1.38
2024-01-03T15:30:34.051Z,1.55
2024-01-03T15:33:01.269Z,1.60
2024-01-03T15:35:28.458Z,0.88
2024-01-03T15:37:55.769Z,1.00
2024-01-03T15:40:25.852Z,0.90
2024-01-03T15:42:53.853Z,0.82
2024-01-03T15:45:21.084Z,1.45
2024-01-03T15:47:49.148Z,1.08
2024-01-03T15:50:16.528Z,1.30
2024-01-03T15:52:43.679Z,1.38
2024-01-03T15:55:10.650Z,1.45
2024-01-03T15:57:38.200Z,1.40
2024-01-03T16:00:07.720Z,0.82
2024-01-03T16:02:35.004Z,1.30
2024-01-03T16:05:02.076Z,0.88
2024-01-03T16:07:29.183Z,1.20
2024-01-03T16:09:55.981Z,1.45
2024-01-03T16:12:22.982Z,1.10
2024-01-03T16:14:50.358Z,0.83
2024-01-03T16:17:17.181Z,1.00
2024-01-03T16:19:45.477Z,1.30
2024-01-03T16:22:13.901Z,1.35
2024-01-03T16:24:41.278Z,1.10
2024-01-03T16:27:08.384Z,0.83
2024-01-03T16:29:36.083Z,1.30
2024-01-03T16:32:04.571Z,1.00
2024-01-03T16:34:31.437Z,1.20
2024-01-03T16:37:08.143Z,0.90
2024-01-03T16:39:37.730Z,1.10
2024-01-03T16:42:05.323Z,0.90
2024-01-03T16:44:31.984Z,0.90
2024-01-03T16:46:58.631Z,1.60
2024-01-03T16:49:25.492Z,1.63
2024-01-03T16:51:57.691Z,1.23
2024-01-03T16:54:28.331Z,1.20
2024-01-03T16:56:56.672Z,1.40
2024-01-03T16:59:24.577Z,1.40
2024-01-03T17:01:54.019Z,1.20
2024-01-03T17:04:21.192Z,1.30
2024-01-03T17:06:47.986Z,1.20
2024-01-03T17:09:18.013Z,1.13
2024-01-03T17:11:45.947Z,0.75
2024-01-03T17:14:17.145Z,1.60
2024-01-03T17:16:44.309Z,1.20
2024-01-03T17:19:12.440Z,1.30
2024-01-03T17:21:39.476Z,1.20
2024-01-03T17:24:07.164Z,1.33
2024-01-03T17:26:38.252Z,1.45
2024-01-03T17:29:05.926Z,1.20
2024-01-03T17:31:33.810Z,1.30
2024-01-03T17:34:01.905Z,1.27
2024-01-03T17:36:31.609Z,1.80
2024-01-03T17:38:59.676Z,1.33
2024-01-03T17:41:27.779Z,1.53
2024-01-03T17:43:55.864Z,1.58
2024-01-03T17:46:37.862Z,1.65
2024-01-03T17:49:04.605Z,2.00
2024-01-03T17:51:37.411Z,1.80
2024-01-03T17:54:04.325Z,1.70
2024-01-03T17:56:34.383Z,2.03
2024-01-03T17:59:02.048Z,1.80
2024-01-03T18:01:28.721Z,1.75
2024-01-03T18:03:55.539Z,1.70
2024-01-03T18:06:23.075Z,1.60
2024-01-03T18:08:50.075Z,1.30
2024-01-03T18:11:16.852Z,1.40
2024-01-03T18:13:43.414Z,1.80
2024-01-03T18:16:10.063Z,1.38
2024-01-03T18:18:36.867Z,1.23
2024-01-03T18:21:06.787Z,1.40
2024-01-03T18:23:37.247Z,2.00
2024-01-03T18:26:04.271Z,2.42
2024-01-03T18:28:31.200Z,2.00
2024-01-03T18:30:57.808Z,0.83
2024-01-03T18:33:24.674Z,0.80
2024-01-03T18:35:51.353Z,1.40
2024-01-03T18:38:18.040Z,1.45
2024-01-03T18:40:44.673Z,0.70
2024-01-03T18:43:11.245Z,0.80
2024-01-03T18:45:37.902Z,1.10
2024-01-03T18:48:05.408Z,1.10
2024-01-03T18:50:33.432Z,1.38
2024-01-03T18:53:00.089Z,1.30
2024-01-03T18:55:26.711Z,1.40
2024-01-03T18:57:53.363Z,1.23
2024-01-03T19:00:20.623Z,1.58
2024-01-03T19:02:48.565Z,1.50
2024-01-03T19:05:15.648Z,1.60
2024-01-03T19:07:42.430Z,2.30
2024-01-03T19:10:10.913Z,1.40
2024-01-03T19:12:39.966Z,2.65
2024-01-03T19:15:07.284Z,1.92
2024-01-03T19:17:34.403Z,2.05
2024-01-03T19:20:01.537Z,1.93
2024-01-03T19:22:31.555Z,1.92
2024-01-03T19:24:58.156Z,2.00
2024-01-03T19:27:24.868Z,2.33
2024-01-03T19:29:51.471Z,2.05
2024-01-03T19:32:18.088Z,2.43
2024-01-03T19:34:44.755Z,1.98
2024-01-03T19:37:11.422Z,1.83
2024-01-03T19:39:38.087Z,2.22
2024-01-03T19:42:05.014Z,1.85
2024-01-03T19:44:32.303Z,1.70
2024-01-03T19:46:59.225Z,1.95
2024-01-03T19:49:26.005Z,2.20
2024-01-03T19:51:52.661Z,2.10
2024-01-03T19:54:19.338Z,2.75
2024-01-03T19:56:46.918Z,1.73
2024-01-03T19:59:13.930Z,1.80
2024-01-03T20:01:40.670Z,2.60
2024-01-03T20:04:07.472Z,2.17
2024-01-03T20:06:34.176Z,2.80
2024-01-03T20:09:02.477Z,2.67
2024-01-03T20:11:29.320Z,2.22
2024-01-03T20:13:56.493Z,2.30
2024-01-03T20:16:23.079Z,1.95
2024-01-03T20:18:51.586Z,2.15
2024-01-03T20:21:18.423Z,2.17
2024-01-03T20:23:45.113Z,2.75
2024-01-03T20:26:17.221Z,3.65
2024-01-03T20:28:46.214Z,2.70
2024-01-03T20:31:17.356Z,2.47
2024-01-03T20:33:44.484Z,2.20
2024-01-03T20:36:13.021Z,1.30
2024-01-03T20:38:40.021Z,1.33
2024-01-03T20:41:07.512Z,1.45
2024-01-03T20:43:37.179Z,1.33
2024-01-03T20:46:06.386Z,1.03
2024-01-03T20:48:34.151Z,1.10
2024-01-03T20:51:01.394Z,1.15
2024-01-03T20:53:30.679Z,1.77
2024-01-03T20:55:58.523Z,1.65
2024-01-03T20:58:25.630Z,1.60
2024-01-03T21:00:54.191Z,1.70
2024-01-03T21:03:21.300Z,2.00
2024-01-03T21:05:48.291Z,1.55
2024-01-03T21:08:15.165Z,1.30
2024-01-03T21:10:42.214Z,1.67
2024-01-03T21:13:08.912Z,1.55
2024-01-03T21:15:36.390Z,1.48
2024-01-03T21:18:03.368Z,1.80
2024-01-03T21:20:30.277Z,1.73
2024-01-03T21:22:56.963Z,2.20
2024-01-03T21:25:24.256Z,1.70
2024-01-03T21:27:52.433Z,1.70
2024-01-03T21:30:21.587Z,1.67
2024-01-03T21:32:50.256Z,1.40
2024-01-03T21:35:17.207Z,1.27
2024-01-03T21:37:44.051Z,1.33
2024-01-03T21:40:11.399Z,1.83
2024-01-03T21:42:41.759Z,1.60
2024-01-03T21:45:09.199Z,1.50
2024-01-03T21:47:41.601Z,1.50
2024-01-03T21:50:09.525Z,1.52
2024-01-03T21:52:36.170Z,1.15
2024-01-03T21:55:03.409Z,1.42
2024-01-03T21:57:30.101Z,1.30
2024-01-03T21:59:58.971Z,1.50
2024-01-03T22:02:26.831Z,1.40
2024-01-03T22:04:53.830Z,1.60
2024-01-03T22:07:20.382Z,1.27
2024-01-03T22:09:47.231Z,1.58
2024-01-03T22:12:14.228Z,1.40
2024-01-03T22:14:47.076Z,3.78
2024-01-03T22:17:14.102Z,2.40
2024-01-03T22:19:41.124Z,1.40
2024-01-03T22:22:07.980Z,1.40
2024-01-03T22:24:34.603Z,1.47
2024-01-03T22:27:01.348Z,1.13
2024-01-03T22:29:28.096Z,1.65
2024-01-03T22:31:54.830Z,2.38
2024-01-03T22:34:21.555Z,2.00
2024-01-03T22:36:48.784Z,1.30
2024-01-03T22:39:16.341Z,1.50
2024-01-03T22:41:43.213Z,1.00
2024-01-03T22:44:09.908Z,1.15
2024-01-03T22:46:44.143Z,0.68
2024-01-03T22:49:12.002Z,0.70
2024-01-03T22:51:42.902Z,0.95
2024-01-03T22:54:10.117Z,0.85
2024-01-03T22:56:38.043Z,0.90
2024-01-03T22:59:05.472Z,0.60
